Time;durP1;ratioP1;P1;durP2;ratioP2;P2;SDS_P1;SDS_P2;PMS_P1;PMS_P2;Temp;Humidity;BMP_temperature;BMP_pressure;BME280_temperature;BME280_humidity;BME280_pressure;Samples;Min_cycle;Max_cycle;Signal;HPM_P1;HPM_P2
2023/07/18 00:00:45;;;;;;;10.73;6.50;;;;;;;;;;5033012;28;20052;-60
2023/07/18 00:03:12;;;;;;;16.42;7.18;;;;;;;;;;5034548;28;20470;-60
2023/07/18 00:05:39;;;;;;;15.35;7.97;;;;;;;;;;5049253;28;20033;-60
2023/07/18 00:08:05;;;;;;;13.60;8.00;;;;;;;;;;5034584;28;20041;-60
2023/07/18 00:10:30;;;;;;;15.65;7.38;;;;;;;;;;5046541;28;20089;-60
2023/07/18 00:12:56;;;;;;;16.75;7.55;;;;;;;;;;5066562;28;20029;-60
2023/07/18 00:15:22;;;;;;;15.10;7.90;;;;;;;;;;5068954;28;20095;-60
2023/07/18 00:17:49;;;;;;;13.57;8.32;;;;;;;;;;5051953;28;20092;-60
2023/07/18 00:20:17;;;;;;;16.40;7.68;;;;;;;;;;5054365;28;20104;-60
2023/07/18 00:22:44;;;;;;;13.35;6.82;;;;;;;;;;5054032;28;20033;-61
2023/07/18 00:25:13;;;;;;;13.80;6.97;;;;;;;;;;5053084;28;20040;-60
2023/07/18 00:27:39;;;;;;;17.30;7.22;;;;;;;;;;5053088;28;20033;-60
2023/07/18 00:30:07;;;;;;;15.10;7.28;;;;;;;;;;5069447;28;20086;-60
2023/07/18 00:32:33;;;;;;;12.85;7.03;;;;;;;;;;5054379;28;20040;-60
2023/07/18 00:34:58;;;;;;;13.68;6.65;;;;;;;;;;5054245;28;20111;-61
2023/07/18 00:37:23;;;;;;;18.15;7.05;;;;;;;;;;5043558;28;20046;-62
2023/07/18 00:39:49;;;;;;;13.23;6.75;;;;;;;;;;5033293;28;20097;-61
2023/07/18 00:42:17;;;;;;;16.98;7.10;;;;;;;;;;5062683;28;20456;-60
2023/07/18 00:44:43;;;;;;;14.43;7.00;;;;;;;;;;5054347;28;20128;-60
2023/07/18 00:47:08;;;;;;;14.40;6.53;;;;;;;;;;5054197;28;20140;-61
2023/07/18 00:49:35;;;;;;;13.45;6.38;;;;;;;;;;5053042;28;20091;-59
2023/07/18 00:52:01;;;;;;;12.52;6.13;;;;;;;;;;5053539;28;20037;-59
2023/07/18 00:54:27;;;;;;;12.30;6.63;;;;;;;;;;5051656;28;20051;-61
2023/07/18 00:56:54;;;;;;;13.73;6.78;;;;;;;;;;5052272;28;20040;-60
2023/07/18 00:59:20;;;;;;;12.23;6.22;;;;;;;;;;5052224;28;20090;-59
2023/07/18 01:01:46;;;;;;;12.18;6.22;;;;;;;;;;5053974;28;20413;-61
2023/07/18 01:04:12;;;;;;;12.13;6.00;;;;;;;;;;5053632;28;20029;-61
2023/07/18 01:06:38;;;;;;;9.98;6.28;;;;;;;;;;5052620;28;20025;-60
2023/07/18 01:09:05;;;;;;;10.18;6.20;;;;;;;;;;5062228;28;20042;-61
2023/07/18 01:11:30;;;;;;;11.77;6.82;;;;;;;;;;5072782;28;20476;-60
2023/07/18 01:13:56;;;;;;;11.65;6.45;;;;;;;;;;5042208;28;20029;-61
2023/07/18 01:16:24;;;;;;;16.30;6.68;;;;;;;;;;5032197;28;20429;-60
2023/07/18 01:18:49;;;;;;;10.43;6.53;;;;;;;;;;5032996;28;20144;-60
2023/07/18 01:21:19;;;;;;;13.45;7.07;;;;;;;;;;5033157;28;20425;-61
2023/07/18 01:23:45;;;;;;;12.13;6.55;;;;;;;;;;5032944;28;20086;-61
2023/07/18 01:26:11;;;;;;;11.07;7.20;;;;;;;;;;5035911;28;20029;-62
2023/07/18 01:28:40;;;;;;;13.15;6.75;;;;;;;;;;5033286;28;20061;-61
2023/07/18 01:31:05;;;;;;;11.77;6.45;;;;;;;;;;5041379;28;20035;-61
2023/07/18 01:33:31;;;;;;;12.82;6.57;;;;;;;;;;5039095;28;20118;-61
2023/07/18 01:35:57;;;;;;;15.07;7.07;;;;;;;;;;5044563;28;20029;-60
2023/07/18 01:38:29;;;;;;;14.18;7.05;;;;;;;;;;5072065;28;20097;-60
2023/07/18 01:40:58;;;;;;;12.20;6.95;;;;;;;;;;5072943;28;20029;-61
2023/07/18 01:43:24;;;;;;;13.63;6.57;;;;;;;;;;5071937;28;20048;-60
2023/07/18 01:45:49;;;;;;;13.85;6.80;;;;;;;;;;5072779;28;20055;-60
2023/07/18 01:48:16;;;;;;;12.80;6.60;;;;;;;;;;5072644;28;20028;-60
2023/07/18 01:50:41;;;;;;;18.95;7.45;;;;;;;;;;5056627;28;20036;-59
2023/07/18 01:53:07;;;;;;;10.48;6.40;;;;;;;;;;5042271;28;20024;-60
2023/07/18 01:55:32;;;;;;;13.00;6.80;;;;;;;;;;5045531;28;20144;-60
2023/07/18 01:57:58;;;;;;;15.38;6.28;;;;;;;;;;5032445;28;20033;-61
2023/07/18 02:00:24;;;;;;;15.13;6.78;;;;;;;;;;5031849;28;20037;-61
2023/07/18 02:02:51;;;;;;;12.50;6.45;;;;;;;;;;5032011;28;20041;-61
2023/07/18 02:05:22;;;;;;;15.15;7.18;;;;;;;;;;5071093;28;20350;-60
2023/07/18 02:07:48;;;;;;;14.00;6.95;;;;;;;;;;5071919;28;20029;-61
2023/07/18 02:10:15;;;;;;;13.73;6.40;;;;;;;;;;5072381;28;20043;-61
2023/07/18 02:12:41;;;;;;;18.77;6.50;;;;;;;;;;5071488;28;20033;-61
2023/07/18 02:15:07;;;;;;;11.95;6.20;;;;;;;;;;5072252;28;20028;-61
2023/07/18 02:17:34;;;;;;;14.50;6.40;;;;;;;;;;5065209;28;20032;-61
2023/07/18 02:20:06;;;;;;;15.05;6.65;;;;;;;;;;5072274;28;20037;-60
2023/07/18 02:22:35;;;;;;;14.32;6.32;;;;;;;;;;5071286;28;20039;-60
2023/07/18 02:25:04;;;;;;;12.32;6.45;;;;;;;;;;5071928;28;20032;-61
2023/07/18 02:27:31;;;;;;;11.93;6.18;;;;;;;;;;5071071;28;20138;-62
2023/07/18 02:29:57;;;;;;;11.38;6.03;;;;;;;;;;5066558;28;20111;-59
2023/07/18 02:32:23;;;;;;;12.82;6.10;;;;;;;;;;5036153;28;20128;-61
2023/07/18 02:34:48;;;;;;;19.15;6.63;;;;;;;;;;5031429;28;20034;-61
2023/07/18 02:37:14;;;;;;;12.77;5.55;;;;;;;;;;5031762;28;20037;-60
2023/07/18 02:39:40;;;;;;;18.27;6.45;;;;;;;;;;5031062;28;20063;-61
2023/07/18 02:42:06;;;;;;;16.85;6.43;;;;;;;;;;5031815;28;20061;-61
2023/07/18 02:44:32;;;;;;;18.38;6.88;;;;;;;;;;5030565;28;20072;-60
2023/07/18 02:46:57;;;;;;;23.80;6.50;;;;;;;;;;5030754;28;20064;-60
2023/07/18 02:49:26;;;;;;;14.05;6.70;;;;;;;;;;5030068;28;20223;-60
2023/07/18 02:51:51;;;;;;;18.10;6.80;;;;;;;;;;5031495;28;20029;-60
2023/07/18 02:54:17;;;;;;;19.98;6.45;;;;;;;;;;5032132;28;20071;-61
2023/07/18 02:56:43;;;;;;;14.20;6.00;;;;;;;;;;5046264;28;20028;-61
2023/07/18 02:59:08;;;;;;;17.30;6.68;;;;;;;;;;5058084;28;20037;-60
2023/07/18 03:01:36;;;;;;;15.63;6.20;;;;;;;;;;5052525;28;20083;-61
2023/07/18 03:04:02;;;;;;;12.88;6.68;;;;;;;;;;5047574;28;20033;-59
2023/07/18 03:06:27;;;;;;;19.45;7.10;;;;;;;;;;5047832;28;20087;-61
2023/07/18 03:08:53;;;;;;;14.90;7.22;;;;;;;;;;5049709;28;20060;-61
2023/07/18 03:11:19;;;;;;;16.52;7.05;;;;;;;;;;5051293;28;20067;-61
2023/07/18 03:13:44;;;;;;;21.48;6.55;;;;;;;;;;5065116;28;20028;-61
2023/07/18 03:16:10;;;;;;;13.25;6.03;;;;;;;;;;5079927;28;20075;-61
2023/07/18 03:18:36;;;;;;;12.27;5.70;;;;;;;;;;5074980;28;20052;-61
2023/07/18 03:21:01;;;;;;;10.38;5.80;;;;;;;;;;5075537;28;20500;-60
2023/07/18 03:23:26;;;;;;;15.43;5.95;;;;;;;;;;5040147;28;20040;-61
2023/07/18 03:25:52;;;;;;;14.98;6.38;;;;;;;;;;5034405;28;20033;-60
2023/07/18 03:28:17;;;;;;;17.05;5.60;;;;;;;;;;5054249;28;20033;-60
2023/07/18 03:30:43;;;;;;;13.07;5.78;;;;;;;;;;5074573;28;20373;-60
2023/07/18 03:33:08;;;;;;;17.73;5.75;;;;;;;;;;5074183;28;20067;-60
2023/07/18 03:35:35;;;;;;;12.05;5.43;;;;;;;;;;5074790;28;20119;-60
2023/07/18 03:38:00;;;;;;;13.50;5.07;;;;;;;;;;5067253;28;20044;-60
2023/07/18 03:40:26;;;;;;;11.07;5.32;;;;;;;;;;5055183;28;20029;-60
2023/07/18 03:42:51;;;;;;;13.13;5.40;;;;;;;;;;5054184;28;20111;-60
2023/07/18 03:45:17;;;;;;;17.25;6.75;;;;;;;;;;5055188;28;20033;-61
2023/07/18 03:47:43;;;;;;;14.65;6.25;;;;;;;;;;5052644;28;20037;-59
2023/07/18 03:50:13;;;;;;;14.18;5.68;;;;;;;;;;5053422;28;20466;-61
2023/07/18 03:52:40;;;;;;;14.15;5.93;;;;;;;;;;5054222;28;20174;-61
2023/07/18 03:55:06;;;;;;;14.18;5.97;;;;;;;;;;5053488;28;20035;-62
2023/07/18 03:57:32;;;;;;;12.43;5.90;;;;;;;;;;5067600;28;20056;-62
2023/07/18 03:59:58;;;;;;;14.95;6.72;;;;;;;;;;5059108;28;20032;-60
2023/07/18 04:02:24;;;;;;;15.80;6.47;;;;;;;;;;5053948;28;20086;-60
2023/07/18 04:04:50;;;;;;;13.10;6.05;;;;;;;;;;5052327;28;20028;-59
2023/07/18 04:07:15;;;;;;;11.60;6.20;;;;;;;;;;5051642;28;20033;-60
2023/07/18 04:09:41;;;;;;;14.85;5.95;;;;;;;;;;5054032;28;20123;-60
2023/07/18 04:12:07;;;;;;;12.57;6.35;;;;;;;;;;5054793;28;20033;-61
2023/07/18 04:14:35;;;;;;;14.30;6.35;;;;;;;;;;5053942;28;20036;-60
2023/07/18 04:17:01;;;;;;;15.82;6.55;;;;;;;;;;5054654;28;20040;-59
2023/07/18 04:19:26;;;;;;;16.13;7.18;;;;;;;;;;5051074;28;20393;-59
2023/07/18 04:21:51;;;;;;;16.38;6.80;;;;;;;;;;5052003;28;20025;-61
2023/07/18 04:24:17;;;;;;;16.20;6.38;;;;;;;;;;5053080;28;20033;-59
2023/07/18 04:26:42;;;;;;;21.60;6.70;;;;;;;;;;5053069;28;20643;-59
2023/07/18 04:29:08;;;;;;;13.43;6.90;;;;;;;;;;5054564;28;20036;-60
2023/07/18 04:31:33;;;;;;;11.90;6.53;;;;;;;;;;5054049;28;20036;-59
2023/07/18 04:33:59;;;;;;;13.07;6.32;;;;;;;;;;5052869;28;20512;-60
2023/07/18 04:36:25;;;;;;;12.35;6.15;;;;;;;;;;5049207;28;20038;-60
2023/07/18 04:38:50;;;;;;;13.60;6.50;;;;;;;;;;5033089;28;20029;-60
2023/07/18 04:41:15;;;;;;;13.95;6.20;;;;;;;;;;5034177;28;20347;-59
2023/07/18 04:43:41;;;;;;;11.50;6.68;;;;;;;;;;5033193;28;20048;-60
2023/07/18 04:46:08;;;;;;;12.32;6.40;;;;;;;;;;5034338;28;20034;-61
2023/07/18 04:48:33;;;;;;;12.85;6.72;;;;;;;;;;5042542;28;20037;-61
2023/07/18 04:51:02;;;;;;;16.00;7.03;;;;;;;;;;5050491;28;20055;-60
2023/07/18 04:53:29;;;;;;;15.70;7.25;;;;;;;;;;5054657;28;20129;-61
2023/07/18 04:55:55;;;;;;;13.82;7.20;;;;;;;;;;5053287;28;20037;-60
2023/07/18 04:58:22;;;;;;;14.90;6.53;;;;;;;;;;5054107;28;20112;-60
2023/07/18 05:00:48;;;;;;;14.13;6.80;;;;;;;;;;5053284;28;20028;-61
2023/07/18 05:03:13;;;;;;;14.43;7.18;;;;;;;;;;5066886;28;20028;-60
2023/07/18 05:05:39;;;;;;;13.43;7.03;;;;;;;;;;5041138;28;20040;-61
2023/07/18 05:08:04;;;;;;;15.48;7.63;;;;;;;;;;5046454;28;20048;-61
2023/07/18 05:10:29;;;;;;;11.55;6.90;;;;;;;;;;5045558;28;20114;-71
2023/07/18 05:12:56;;;;;;;12.68;6.82;;;;;;;;;;5057048;28;20037;-66
2023/07/18 05:15:22;;;;;;;12.82;7.15;;;;;;;;;;5052541;28;20090;-64
2023/07/18 05:17:48;;;;;;;15.80;7.07;;;;;;;;;;5052513;28;20036;-65
2023/07/18 05:20:13;;;;;;;12.52;6.53;;;;;;;;;;5053014;28;20025;-68
2023/07/18 05:22:40;;;;;;;14.85;6.40;;;;;;;;;;5064539;28;20036;-69
2023/07/18 05:25:07;;;;;;;12.73;6.72;;;;;;;;;;5072215;28;20060;-69
2023/07/18 05:27:32;;;;;;;13.50;6.60;;;;;;;;;;5057405;28;20104;-69
2023/07/18 05:29:58;;;;;;;12.45;6.35;;;;;;;;;;5051987;28;20116;-66
2023/07/18 05:32:23;;;;;;;11.57;6.47;;;;;;;;;;5035140;28;20116;-67
2023/07/18 05:34:51;;;;;;;13.80;6.63;;;;;;;;;;5052405;28;20446;-68
2023/07/18 05:37:17;;;;;;;12.35;6.50;;;;;;;;;;5037604;28;20089;-68
2023/07/18 05:39:42;;;;;;;11.38;6.20;;;;;;;;;;5031962;28;20116;-69
2023/07/18 05:42:08;;;;;;;14.85;6.70;;;;;;;;;;5046535;28;20027;-67
2023/07/18 05:44:33;;;;;;;11.65;6.00;;;;;;;;;;5052628;28;20047;-68
2023/07/18 05:46:59;;;;;;;10.15;5.70;;;;;;;;;;5051677;28;20048;-68
2023/07/18 05:49:26;;;;;;;11.15;5.57;;;;;;;;;;5050455;28;20090;-70
2023/07/18 05:51:52;;;;;;;9.32;5.30;;;;;;;;;;5051775;28;20039;-68
2023/07/18 05:54:17;;;;;;;10.88;5.30;;;;;;;;;;5047496;28;20033;-68
2023/07/18 05:56:43;;;;;;;9.82;5.63;;;;;;;;;;5048184;28;20036;-68
2023/07/18 05:59:08;;;;;;;8.93;5.28;;;;;;;;;;5049551;28;20427;-68
2023/07/18 06:01:34;;;;;;;10.80;5.32;;;;;;;;;;5051267;28;20032;-69
2023/07/18 06:03:59;;;;;;;10.68;5.00;;;;;;;;;;5051998;28;20032;-69
2023/07/18 06:06:27;;;;;;;9.27;4.90;;;;;;;;;;5051743;28;20452;-68
2023/07/18 06:08:52;;;;;;;7.40;4.28;;;;;;;;;;5048141;28;20039;-65
2023/07/18 06:11:20;;;;;;;10.93;4.43;;;;;;;;;;5066288;28;20439;-68
2023/07/18 06:13:45;;;;;;;11.93;3.95;;;;;;;;;;5051283;28;20043;-67
2023/07/18 06:16:11;;;;;;;6.93;3.90;;;;;;;;;;5051104;28;20037;-68
2023/07/18 06:18:37;;;;;;;6.55;3.70;;;;;;;;;;5044268;28;20064;-65
2023/07/18 06:21:03;;;;;;;10.02;4.03;;;;;;;;;;5053981;28;20043;-70
2023/07/18 06:23:32;;;;;;;7.40;3.65;;;;;;;;;;5044722;28;20037;-69
2023/07/18 06:25:57;;;;;;;7.00;3.90;;;;;;;;;;5051642;28;20080;-67
2023/07/18 06:28:23;;;;;;;7.30;3.80;;;;;;;;;;5039143;28;20033;-68
2023/07/18 06:30:54;;;;;;;8.90;3.90;;;;;;;;;;5048818;28;20041;-69
2023/07/18 06:33:19;;;;;;;7.07;3.60;;;;;;;;;;5052005;28;20036;-69
2023/07/18 06:35:53;;;;;;;11.55;3.60;;;;;;;;;;5051141;28;20028;-69
2023/07/18 06:38:20;;;;;;;9.25;4.00;;;;;;;;;;5051957;28;20032;-70
2023/07/18 06:40:49;;;;;;;6.88;3.45;;;;;;;;;;5050931;28;20025;-68
2023/07/18 06:43:16;;;;;;;10.32;3.42;;;;;;;;;;5043490;28;20049;-68
2023/07/18 06:45:46;;;;;;;6.50;3.50;;;;;;;;;;5068748;28;20502;-68
2023/07/18 06:48:14;;;;;;;6.47;3.30;;;;;;;;;;5050617;28;20426;-65
2023/07/18 06:50:52;;;;;;;7.25;3.58;;;;;;;;;;5050429;28;20033;-67
2023/07/18 06:53:20;;;;;;;9.18;3.50;;;;;;;;;;5049864;28;20040;-68
2023/07/18 06:55:49;;;;;;;8.68;3.50;;;;;;;;;;5052846;28;20143;-67
2023/07/18 06:58:18;;;;;;;7.00;3.35;;;;;;;;;;5062485;28;20036;-66
2023/07/18 07:00:45;;;;;;;5.50;3.00;;;;;;;;;;5047903;28;20382;-64
2023/07/18 07:03:10;;;;;;;7.53;3.10;;;;;;;;;;5050455;28;20462;-67
2023/07/18 07:05:38;;;;;;;9.27;3.10;;;;;;;;;;5059110;28;20043;-67
2023/07/18 07:08:08;;;;;;;7.70;3.20;;;;;;;;;;5056699;28;20036;-67
2023/07/18 07:10:37;;;;;;;6.22;3.10;;;;;;;;;;5049798;28;20033;-67
2023/07/18 07:13:03;;;;;;;7.07;3.15;;;;;;;;;;5051041;28;20036;-66
2023/07/18 07:15:29;;;;;;;10.00;3.20;;;;;;;;;;5048017;28;20149;-68
2023/07/18 07:17:54;;;;;;;7.88;3.00;;;;;;;;;;5045433;28;20513;-65
2023/07/18 07:20:20;;;;;;;7.07;3.00;;;;;;;;;;5051222;28;20386;-66
2023/07/18 07:22:47;;;;;;;9.35;2.90;;;;;;;;;;5050335;28;20029;-65
2023/07/18 07:25:14;;;;;;;6.07;2.65;;;;;;;;;;5058820;28;20033;-67
2023/07/18 07:27:44;;;;;;;5.60;2.85;;;;;;;;;;5061124;28;20033;-67
2023/07/18 07:30:10;;;;;;;6.55;3.03;;;;;;;;;;5051278;28;20041;-65
2023/07/18 07:32:35;;;;;;;7.85;2.78;;;;;;;;;;5049903;28;20036;-65
2023/07/18 07:35:01;;;;;;;7.78;3.00;;;;;;;;;;5047220;28;20025;-64
2023/07/18 07:37:26;;;;;;;6.05;2.78;;;;;;;;;;5050561;28;20487;-68
2023/07/18 07:39:51;;;;;;;6.57;2.60;;;;;;;;;;5050117;28;20025;-65
2023/07/18 07:42:17;;;;;;;7.50;2.78;;;;;;;;;;5051065;28;20040;-67
2023/07/18 07:44:45;;;;;;;6.68;2.60;;;;;;;;;;5050064;28;20098;-67
2023/07/18 07:47:10;;;;;;;5.10;2.40;;;;;;;;;;5048931;28;20059;-67
2023/07/18 07:49:36;;;;;;;4.75;2.38;;;;;;;;;;5041116;28;20510;-67
2023/07/18 07:52:01;;;;;;;5.95;2.42;;;;;;;;;;5035921;28;20035;-67
2023/07/18 07:54:26;;;;;;;6.75;2.47;;;;;;;;;;5050811;28;20025;-67
2023/07/18 07:56:52;;;;;;;6.63;2.17;;;;;;;;;;5050204;28;20386;-65
2023/07/18 07:59:18;;;;;;;6.55;2.20;;;;;;;;;;5050885;28;20029;-66
2023/07/18 08:01:43;;;;;;;5.97;2.20;;;;;;;;;;5052990;28;20126;-68
2023/07/18 08:04:09;;;;;;;5.82;2.53;;;;;;;;;;5037108;28;20393;-67
2023/07/18 08:06:35;;;;;;;7.40;2.13;;;;;;;;;;5034696;28;20068;-66
2023/07/18 08:09:02;;;;;;;8.05;2.25;;;;;;;;;;5053007;28;20749;-67
2023/07/18 08:11:28;;;;;;;7.03;2.28;;;;;;;;;;5054448;28;20029;-68
2023/07/18 08:13:53;;;;;;;5.65;2.03;;;;;;;;;;5053806;28;20454;-67
2023/07/18 08:16:19;;;;;;;5.00;1.90;;;;;;;;;;5045255;28;20120;-65
2023/07/18 08:18:47;;;;;;;4.20;1.73;;;;;;;;;;5055572;28;20029;-67
2023/07/18 08:21:13;;;;;;;8.85;2.08;;;;;;;;;;5064285;28;20446;-67
2023/07/18 08:23:39;;;;;;;5.20;1.50;;;;;;;;;;5052064;28;20466;-67
2023/07/18 08:26:04;;;;;;;5.25;1.92;;;;;;;;;;5051579;28;20041;-67
2023/07/18 08:28:29;;;;;;;6.03;1.70;;;;;;;;;;5048043;28;20033;-63
2023/07/18 08:30:55;;;;;;;3.28;1.50;;;;;;;;;;5047082;28;20449;-64
2023/07/18 08:33:21;;;;;;;3.20;1.60;;;;;;;;;;5054265;28;20036;-63
2023/07/18 08:35:49;;;;;;;5.20;1.95;;;;;;;;;;5037900;28;20030;-66
2023/07/18 08:38:14;;;;;;;4.90;1.80;;;;;;;;;;5048366;28;20094;-65
2023/07/18 08:40:48;;;;;;;6.45;1.80;;;;;;;;;;5050447;28;20033;-67
2023/07/18 08:43:18;;;;;;;6.15;1.73;;;;;;;;;;5062589;28;20079;-67
2023/07/18 08:45:44;;;;;;;4.60;1.70;;;;;;;;;;5077373;28;20071;-67
2023/07/18 08:48:09;;;;;;;4.78;1.60;;;;;;;;;;5057423;28;20064;-66
2023/07/18 08:50:35;;;;;;;6.05;1.55;;;;;;;;;;5053557;28;20119;-66
2023/07/18 08:53:04;;;;;;;3.22;1.40;;;;;;;;;;5052767;28;20029;-66
2023/07/18 08:55:30;;;;;;;2.80;1.50;;;;;;;;;;5053678;28;20029;-66
2023/07/18 08:57:56;;;;;;;3.35;1.55;;;;;;;;;;5052834;28;20163;-67
2023/07/18 09:00:21;;;;;;;3.67;1.50;;;;;;;;;;5052362;28;20033;-63
2023/07/18 09:02:50;;;;;;;5.97;1.65;;;;;;;;;;5047434;28;20081;-69
2023/07/18 09:05:27;;;;;;;2.65;1.45;;;;;;;;;;5058596;28;20393;-74
2023/07/18 09:07:55;;;;;;;4.07;1.70;;;;;;;;;;5057628;28;20040;-64
2023/07/18 09:10:21;;;;;;;4.88;1.60;;;;;;;;;;5068633;28;20029;-69
2023/07/18 09:12:46;;;;;;;4.00;1.60;;;;;;;;;;5064798;28;20040;-68
2023/07/18 09:15:19;;;;;;;2.95;1.40;;;;;;;;;;5045769;28;20067;-69
2023/07/18 09:17:48;;;;;;;3.78;1.60;;;;;;;;;;5057096;28;20044;-69
2023/07/18 09:20:17;;;;;;;5.47;1.55;;;;;;;;;;5048931;28;20075;-68
2023/07/18 09:22:42;;;;;;;3.22;1.40;;;;;;;;;;5058806;28;20394;-70
2023/07/18 09:25:08;;;;;;;4.82;1.60;;;;;;;;;;5071902;28;20024;-68
2023/07/18 09:27:35;;;;;;;3.40;1.45;;;;;;;;;;5051118;28;20083;-69
2023/07/18 09:30:00;;;;;;;2.80;1.40;;;;;;;;;;5052107;28;20039;-68
2023/07/18 09:32:26;;;;;;;3.05;1.50;;;;;;;;;;5052659;28;20032;-68
2023/07/18 09:34:56;;;;;;;5.13;1.40;;;;;;;;;;5052407;28;20086;-69
2023/07/18 09:37:21;;;;;;;5.75;1.80;;;;;;;;;;5053244;28;20116;-67
2023/07/18 09:39:48;;;;;;;5.07;1.40;;;;;;;;;;5031620;28;20442;-69
2023/07/18 09:42:16;;;;;;;3.33;1.35;;;;;;;;;;5050100;28;20108;-68
2023/07/18 09:44:46;;;;;;;2.13;1.40;;;;;;;;;;5071121;28;20056;-68
2023/07/18 09:47:13;;;;;;;3.97;1.33;;;;;;;;;;5045541;28;20061;-64
2023/07/18 09:49:38;;;;;;;4.95;1.30;;;;;;;;;;5051386;28;20086;-66
2023/07/18 09:52:05;;;;;;;3.00;1.45;;;;;;;;;;5056817;28;20680;-65
2023/07/18 09:54:32;;;;;;;3.03;1.38;;;;;;;;;;5055042;28;20385;-66
2023/07/18 09:57:06;;;;;;;2.70;1.30;;;;;;;;;;5050760;28;20408;-67
2023/07/18 09:59:37;;;;;;;2.50;1.60;;;;;;;;;;5051612;28;20040;-66
2023/07/18 10:02:06;;;;;;;2.58;1.38;;;;;;;;;;5051602;28;20025;-67
2023/07/18 10:04:32;;;;;;;3.58;1.40;;;;;;;;;;5059286;28;20495;-66
2023/07/18 10:06:58;;;;;;;2.33;1.40;;;;;;;;;;5058516;28;20469;-68
2023/07/18 10:09:27;;;;;;;3.28;1.48;;;;;;;;;;5052105;28;20044;-68
2023/07/18 10:11:58;;;;;;;3.90;1.73;;;;;;;;;;5051329;28;20039;-68
2023/07/18 10:14:49;;;;;;;4.28;1.70;;;;;;;;;;5063867;28;20504;-69
2023/07/18 10:17:50;;;;;;;4.00;1.60;;;;;;;;;;5051104;28;20033;-66
2023/07/18 10:20:19;;;;;;;;;;;;;;;;;;5020809;28;20577;-65
2023/07/18 10:22:57;;;;;;;2.38;1.50;;;;;;;;;;5032369;28;19920;-65
2023/07/18 10:25:25;;;;;;;6.55;1.60;;;;;;;;;;5051167;28;20084;-67
2023/07/18 10:27:51;;;;;;;4.72;1.73;;;;;;;;;;5051257;28;20488;-67
2023/07/18 10:30:18;;;;;;;7.35;1.83;;;;;;;;;;5050215;28;20032;-68
2023/07/18 10:32:57;;;;;;;3.67;1.90;;;;;;;;;;5051487;28;20036;-67
2023/07/18 10:35:25;;;;;;;4.43;1.67;;;;;;;;;;5033710;28;20056;-67
2023/07/18 10:37:53;;;;;;;5.97;1.77;;;;;;;;;;5033747;28;20030;-69
2023/07/18 10:40:44;;;;;;;4.65;1.50;;;;;;;;;;5050829;28;20028;-65
2023/07/18 10:43:18;;;;;;;3.80;1.83;;;;;;;;;;5049304;28;20575;-65
2023/07/18 10:45:44;;;;;;;5.13;1.90;;;;;;;;;;5050388;28;20124;-66
2023/07/18 10:48:10;;;;;;;4.35;1.88;;;;;;;;;;5050109;28;20079;-67
2023/07/18 10:50:36;;;;;;;4.65;1.90;;;;;;;;;;5051415;28;20044;-67
2023/07/18 10:53:02;;;;;;;5.80;1.70;;;;;;;;;;5050930;28;20044;-67
2023/07/18 10:55:27;;;;;;;5.68;2.38;;;;;;;;;;5051821;28;20033;-66
2023/07/18 10:57:53;;;;;;;5.32;1.70;;;;;;;;;;5051178;28;20474;-67
2023/07/18 11:00:20;;;;;;;7.57;2.30;;;;;;;;;;5051547;28;20061;-68
2023/07/18 11:02:45;;;;;;;5.47;2.10;;;;;;;;;;5050437;28;20039;-68
2023/07/18 11:05:13;;;;;;;3.67;1.88;;;;;;;;;;5048656;28;20384;-67
2023/07/18 11:07:49;;;;;;;5.88;2.30;;;;;;;;;;5071142;28;20033;-67
2023/07/18 11:10:15;;;;;;;6.13;2.03;;;;;;;;;;5064997;28;20082;-68
2023/07/18 11:12:42;;;;;;;4.20;1.90;;;;;;;;;;5036153;28;20039;-68
2023/07/18 11:15:09;;;;;;;4.40;2.03;;;;;;;;;;5038757;28;20036;-68
2023/07/18 11:17:35;;;;;;;6.57;2.28;;;;;;;;;;5053014;28;20098;-68
2023/07/18 11:20:02;;;;;;;5.43;2.17;;;;;;;;;;5053832;28;20029;-63
2023/07/18 11:22:29;;;;;;;6.75;2.42;;;;;;;;;;5061362;28;20512;-65
2023/07/18 11:24:55;;;;;;;4.13;1.90;;;;;;;;;;5056495;28;20055;-67
2023/07/18 11:27:25;;;;;;;6.47;2.50;;;;;;;;;;5042402;28;20103;-63
2023/07/18 11:30:03;;;;;;;4.63;1.97;;;;;;;;;;5045563;28;20123;-67
2023/07/18 11:32:48;;;;;;;7.20;2.08;;;;;;;;;;5045452;28;20037;-66
2023/07/18 11:35:22;;;;;;;4.13;2.13;;;;;;;;;;5050032;28;20140;-64
2023/07/18 11:37:52;;;;;;;6.72;2.33;;;;;;;;;;5055491;28;20083;-66
2023/07/18 11:40:25;;;;;;;6.53;2.03;;;;;;;;;;5054803;28;20025;-65
2023/07/18 11:42:58;;;;;;;4.05;2.05;;;;;;;;;;5053055;28;20025;-66
2023/07/18 11:45:25;;;;;;;5.30;2.42;;;;;;;;;;5053174;28;20039;-66
2023/07/18 11:47:53;;;;;;;6.88;1.90;;;;;;;;;;5054298;28;20044;-67
2023/07/18 11:50:19;;;;;;;5.85;2.08;;;;;;;;;;5054961;28;20033;-64
2023/07/18 11:52:49;;;;;;;4.88;2.20;;;;;;;;;;5054811;28;20116;-64
2023/07/18 11:55:16;;;;;;;;;;;;;;;;;;5055290;28;20037;-66
2023/07/18 11:57:41;;;;;;;4.60;2.10;;;;;;;;;;5054710;28;19912;-66
2023/07/18 12:00:09;;;;;;;6.72;2.13;;;;;;;;;;5053824;28;20040;-66
2023/07/18 12:02:34;;;;;;;6.13;2.15;;;;;;;;;;5054237;28;20521;-65
2023/07/18 12:05:00;;;;;;;4.40;2.20;;;;;;;;;;5052151;28;20087;-65
2023/07/18 12:07:26;;;;;;;5.30;2.33;;;;;;;;;;5054439;28;20033;-66
2023/07/18 12:09:52;;;;;;;6.22;2.13;;;;;;;;;;5052919;28;20465;-68
2023/07/18 12:12:17;;;;;;;7.07;2.17;;;;;;;;;;5054709;28;20377;-66
2023/07/18 12:14:44;;;;;;;6.95;1.95;;;;;;;;;;5053901;28;20036;-65
2023/07/18 12:17:10;;;;;;;4.88;2.08;;;;;;;;;;5053665;28;20102;-65
2023/07/18 12:19:35;;;;;;;4.13;2.13;;;;;;;;;;5054025;28;20044;-65
2023/07/18 12:22:00;;;;;;;5.00;2.00;;;;;;;;;;5053525;28;20119;-65
2023/07/18 12:24:26;;;;;;;4.40;2.00;;;;;;;;;;5058192;28;20030;-66
2023/07/18 12:26:51;;;;;;;4.43;2.10;;;;;;;;;;5061836;28;20033;-65
2023/07/18 12:29:18;;;;;;;3.95;2.03;;;;;;;;;;5055175;28;20047;-65
2023/07/18 12:31:49;;;;;;;4.63;2.20;;;;;;;;;;5046775;28;20034;-65
2023/07/18 12:34:16;;;;;;;6.65;2.30;;;;;;;;;;5056619;28;20033;-65
2023/07/18 12:36:41;;;;;;;5.32;2.33;;;;;;;;;;5054907;28;20024;-64
2023/07/18 12:39:09;;;;;;;5.35;2.10;;;;;;;;;;5055468;28;20500;-66
2023/07/18 12:41:35;;;;;;;5.13;2.22;;;;;;;;;;5054103;28;20029;-65
2023/07/18 12:44:00;;;;;;;16.38;2.10;;;;;;;;;;5052898;28;20049;-66
2023/07/18 12:46:26;;;;;;;5.28;2.20;;;;;;;;;;5053233;28;20033;-63
2023/07/18 12:48:55;;;;;;;5.97;2.35;;;;;;;;;;5055215;28;20120;-63
2023/07/18 12:51:22;;;;;;;7.25;2.15;;;;;;;;;;5051770;28;20033;-64
2023/07/18 12:53:48;;;;;;;6.75;2.20;;;;;;;;;;5053420;28;20116;-65
2023/07/18 12:56:14;;;;;;;5.65;2.10;;;;;;;;;;5052835;28;20106;-66
2023/07/18 12:58:41;;;;;;;5.45;2.03;;;;;;;;;;5053565;28;20036;-65
2023/07/18 13:01:10;;;;;;;4.65;2.05;;;;;;;;;;5071282;28;20050;-65
2023/07/18 13:03:35;;;;;;;4.47;2.13;;;;;;;;;;5054794;28;20152;-65
2023/07/18 13:06:01;;;;;;;7.68;2.30;;;;;;;;;;5052223;28;20112;-66
2023/07/18 13:08:26;;;;;;;3.83;2.20;;;;;;;;;;5053371;28;20033;-65
2023/07/18 13:10:52;;;;;;;5.47;2.25;;;;;;;;;;5049816;28;20060;-64
2023/07/18 13:13:17;;;;;;;5.88;2.00;;;;;;;;;;5052388;28;20545;-64
2023/07/18 13:15:47;;;;;;;4.57;2.10;;;;;;;;;;5040776;28;20030;-63
2023/07/18 13:18:13;;;;;;;4.00;2.13;;;;;;;;;;5051723;28;20033;-65
2023/07/18 13:20:38;;;;;;;6.28;2.22;;;;;;;;;;5052407;28;20086;-64
2023/07/18 13:23:04;;;;;;;3.80;1.90;;;;;;;;;;5039961;28;20034;-65
2023/07/18 13:25:29;;;;;;;3.78;2.00;;;;;;;;;;5058870;28;20037;-66
2023/07/18 13:27:55;;;;;;;5.07;2.35;;;;;;;;;;5060035;28;20025;-68
2023/07/18 13:30:21;;;;;;;6.50;2.28;;;;;;;;;;5060784;28;20448;-63
2023/07/18 13:32:46;;;;;;;9.07;2.10;;;;;;;;;;5036272;28;20123;-64
2023/07/18 13:35:12;;;;;;;3.85;2.10;;;;;;;;;;5041666;28;20033;-65
2023/07/18 13:37:37;;;;;;;5.45;2.15;;;;;;;;;;5045585;28;20029;-64
2023/07/18 13:40:03;;;;;;;5.13;2.13;;;;;;;;;;5040653;28;20053;-66
2023/07/18 13:42:30;;;;;;;4.88;2.17;;;;;;;;;;5065520;28;20032;-65
2023/07/18 13:44:56;;;;;;;5.53;2.22;;;;;;;;;;5041619;28;20045;-68
2023/07/18 13:47:21;;;;;;;4.47;2.10;;;;;;;;;;5064373;28;20035;-65
2023/07/18 13:49:46;;;;;;;6.13;2.17;;;;;;;;;;5063326;28;20029;-66
2023/07/18 13:52:12;;;;;;;7.80;2.20;;;;;;;;;;5055240;28;20377;-63
2023/07/18 13:54:37;;;;;;;5.72;1.98;;;;;;;;;;5061534;28;20025;-64
2023/07/18 13:57:04;;;;;;;4.75;2.20;;;;;;;;;;5064781;28;20032;-63
2023/07/18 13:59:29;;;;;;;5.40;2.10;;;;;;;;;;5067790;28;20123;-64
2023/07/18 14:01:54;;;;;;;3.55;2.10;;;;;;;;;;5039096;28;20521;-67
2023/07/18 14:04:20;;;;;;;3.95;2.08;;;;;;;;;;5049664;28;20029;-64
2023/07/18 14:06:45;;;;;;;4.47;2.13;;;;;;;;;;5061825;28;20032;-65
2023/07/18 14:09:10;;;;;;;4.68;2.15;;;;;;;;;;5071052;28;20075;-66
2023/07/18 14:11:36;;;;;;;7.78;2.58;;;;;;;;;;5051607;28;20063;-66
2023/07/18 14:14:01;;;;;;;4.28;2.10;;;;;;;;;;5050871;28;20048;-64
2023/07/18 14:16:27;;;;;;;5.68;2.50;;;;;;;;;;5052998;28;20036;-64
2023/07/18 14:18:56;;;;;;;6.43;2.55;;;;;;;;;;5064599;28;20086;-64
2023/07/18 14:21:22;;;;;;;6.70;2.20;;;;;;;;;;5053713;28;20079;-65
2023/07/18 14:23:47;;;;;;;3.95;1.95;;;;;;;;;;5051622;28;20052;-64
2023/07/18 14:26:13;;;;;;;4.30;1.92;;;;;;;;;;5050741;28;20477;-64
2023/07/18 14:28:38;;;;;;;7.93;2.30;;;;;;;;;;5052438;28;20043;-64
2023/07/18 14:31:03;;;;;;;5.72;2.28;;;;;;;;;;5050793;28;20033;-64
2023/07/18 14:33:29;;;;;;;5.47;2.03;;;;;;;;;;5050280;28;20028;-62
2023/07/18 14:35:54;;;;;;;3.13;2.00;;;;;;;;;;5051576;28;20032;-62